sensor_id;sensor_type;location;lat;lon;timestamp;P1;durP1;ratioP1;P2;durP2;ratioP2
13218;SDS011;6674;49.152;11.918;2023-03-01T00:01:15;14.27;;;12.60;;
13218;SDS011;6674;49.152;11.918;2023-03-01T00:03:43;15.30;;;13.07;;
13218;SDS011;6674;49.152;11.918;2023-03-01T00:06:10;15.27;;;13.40;;
13218;SDS011;6674;49.152;11.918;2023-03-01T00:08:39;12.63;;;11.33;;
13218;SDS011;6674;49.152;11.918;2023-03-01T00:11:06;12.30;;;10.77;;
13218;SDS011;6674;49.152;11.918;2023-03-01T00:13:36;13.60;;;11.77;;
13218;SDS011;6674;49.152;11.918;2023-03-01T00:16:03;15.73;;;13.47;;
13218;SDS011;6674;49.152;11.918;2023-03-01T00:18:30;15.70;;;12.43;;
13218;SDS011;6674;49.152;11.918;2023-03-01T00:20:56;15.43;;;13.50;;
13218;SDS011;6674;49.152;11.918;2023-03-01T00:23:23;13.87;;;12.27;;
13218;SDS011;6674;49.152;11.918;2023-03-01T00:25:52;16.17;;;13.43;;
13218;SDS011;6674;49.152;11.918;2023-03-01T00:28:19;16.43;;;13.27;;
13218;SDS011;6674;49.152;11.918;2023-03-01T00:30:46;14.63;;;12.93;;
13218;SDS011;6674;49.152;11.918;2023-03-01T00:33:13;19.00;;;13.17;;
13218;SDS011;6674;49.152;11.918;2023-03-01T00:35:39;16.07;;;14.37;;
13218;SDS011;6674;49.152;11.918;2023-03-01T00:38:06;16.00;;;12.87;;
13218;SDS011;6674;49.152;11.918;2023-03-01T00:40:34;15.73;;;13.33;;
13218;SDS011;6674;49.152;11.918;2023-03-01T00:43:03;15.60;;;13.13;;
13218;SDS011;6674;49.152;11.918;2023-03-01T00:45:30;16.13;;;13.77;;
13218;SDS011;6674;49.152;11.918;2023-03-01T00:47:57;14.67;;;12.77;;
13218;SDS011;6674;49.152;11.918;2023-03-01T00:50:23;16.13;;;12.70;;
13218;SDS011;6674;49.152;11.918;2023-03-01T00:52:52;16.13;;;14.00;;
13218;SDS011;6674;49.152;11.918;2023-03-01T00:55:19;15.97;;;12.87;;
13218;SDS011;6674;49.152;11.918;2023-03-01T00:57:46;16.33;;;13.43;;
13218;SDS011;6674;49.152;11.918;2023-03-01T01:00:14;17.17;;;13.47;;
13218;SDS011;6674;49.152;11.918;2023-03-01T01:02:43;17.20;;;14.23;;
13218;SDS011;6674;49.152;11.918;2023-03-01T01:05:10;15.33;;;12.77;;
13218;SDS011;6674;49.152;11.918;2023-03-01T01:07:37;16.63;;;13.40;;
13218;SDS011;6674;49.152;11.918;2023-03-01T01:10:04;17.77;;;14.30;;
13218;SDS011;6674;49.152;11.918;2023-03-01T01:12:32;18.73;;;13.77;;
13218;SDS011;6674;49.152;11.918;2023-03-01T01:14:59;16.60;;;12.83;;
13218;SDS011;6674;49.152;11.918;2023-03-01T01:17:27;17.40;;;14.17;;
13218;SDS011;6674;49.152;11.918;2023-03-01T01:19:53;16.73;;;14.83;;
13218;SDS011;6674;49.152;11.918;2023-03-01T01:22:20;17.93;;;13.97;;
13218;SDS011;6674;49.152;11.918;2023-03-01T01:24:47;17.80;;;14.07;;
13218;SDS011;6674;49.152;11.918;2023-03-01T01:27:13;16.27;;;13.47;;
13218;SDS011;6674;49.152;11.918;2023-03-01T01:29:40;16.80;;;13.83;;
13218;SDS011;6674;49.152;11.918;2023-03-01T01:32:07;15.83;;;13.33;;
13218;SDS011;6674;49.152;11.918;2023-03-01T01:34:35;18.10;;;14.23;;
13218;SDS011;6674;49.152;11.918;2023-03-01T01:37:01;18.87;;;14.93;;
13218;SDS011;6674;49.152;11.918;2023-03-01T01:39:29;18.03;;;14.63;;
13218;SDS011;6674;49.152;11.918;2023-03-01T01:41:56;16.10;;;13.23;;
13218;SDS011;6674;49.152;11.918;2023-03-01T01:44:23;17.47;;;13.50;;
13218;SDS011;6674;49.152;11.918;2023-03-01T01:46:52;17.57;;;14.20;;
13218;SDS011;6674;49.152;11.918;2023-03-01T01:49:25;17.40;;;14.23;;
13218;SDS011;6674;49.152;11.918;2023-03-01T01:51:58;18.27;;;14.00;;
13218;SDS011;6674;49.152;11.918;2023-03-01T01:54:31;17.00;;;13.83;;
13218;SDS011;6674;49.152;11.918;2023-03-01T01:57:06;17.33;;;13.33;;
13218;SDS011;6674;49.152;11.918;2023-03-01T01:59:35;18.33;;;13.70;;
13218;SDS011;6674;49.152;11.918;2023-03-01T02:02:04;16.97;;;13.53;;
13218;SDS011;6674;49.152;11.918;2023-03-01T02:04:31;17.93;;;14.27;;
13218;SDS011;6674;49.152;11.918;2023-03-01T02:07:01;16.40;;;12.93;;
13218;SDS011;6674;49.152;11.918;2023-03-01T02:09:32;16.93;;;12.83;;
13218;SDS011;6674;49.152;11.918;2023-03-01T02:12:00;17.87;;;13.70;;
13218;SDS011;6674;49.152;11.918;2023-03-01T02:14:28;16.67;;;13.03;;
13218;SDS011;6674;49.152;11.918;2023-03-01T02:16:54;16.93;;;12.73;;
13218;SDS011;6674;49.152;11.918;2023-03-01T02:19:28;16.97;;;14.37;;
13218;SDS011;6674;49.152;11.918;2023-03-01T02:22:05;17.17;;;13.50;;
13218;SDS011;6674;49.152;11.918;2023-03-01T02:24:44;17.03;;;12.93;;
13218;SDS011;6674;49.152;11.918;2023-03-01T02:27:21;15.23;;;12.40;;
13218;SDS011;6674;49.152;11.918;2023-03-01T02:29:53;18.13;;;14.33;;
13218;SDS011;6674;49.152;11.918;2023-03-01T02:32:20;18.17;;;14.03;;
13218;SDS011;6674;49.152;11.918;2023-03-01T02:34:50;17.30;;;13.93;;
13218;SDS011;6674;49.152;11.918;2023-03-01T02:37:17;19.03;;;13.40;;
13218;SDS011;6674;49.152;11.918;2023-03-01T02:39:50;16.37;;;12.07;;
13218;SDS011;6674;49.152;11.918;2023-03-01T02:42:23;17.27;;;13.03;;
13218;SDS011;6674;49.152;11.918;2023-03-01T02:44:54;16.70;;;13.30;;
13218;SDS011;6674;49.152;11.918;2023-03-01T02:47:21;15.80;;;12.60;;
13218;SDS011;6674;49.152;11.918;2023-03-01T02:49:48;14.53;;;12.70;;
13218;SDS011;6674;49.152;11.918;2023-03-01T02:52:21;16.17;;;12.77;;
13218;SDS011;6674;49.152;11.918;2023-03-01T02:54:58;14.43;;;12.43;;
13218;SDS011;6674;49.152;11.918;2023-03-01T02:57:27;16.17;;;12.67;;
13218;SDS011;6674;49.152;11.918;2023-03-01T02:59:58;17.27;;;13.57;;
13218;SDS011;6674;49.152;11.918;2023-03-01T03:02:32;17.03;;;13.33;;
13218;SDS011;6674;49.152;11.918;2023-03-01T03:05:06;14.47;;;12.70;;
13218;SDS011;6674;49.152;11.918;2023-03-01T03:07:35;15.57;;;12.53;;
13218;SDS011;6674;49.152;11.918;2023-03-01T03:10:03;16.63;;;12.50;;
13218;SDS011;6674;49.152;11.918;2023-03-01T03:12:30;15.40;;;12.27;;
13218;SDS011;6674;49.152;11.918;2023-03-01T03:14:59;15.23;;;11.87;;
13218;SDS011;6674;49.152;11.918;2023-03-01T03:17:25;14.93;;;12.20;;
13218;SDS011;6674;49.152;11.918;2023-03-01T03:19:52;15.47;;;12.60;;
13218;SDS011;6674;49.152;11.918;2023-03-01T03:22:18;16.00;;;12.90;;
13218;SDS011;6674;49.152;11.918;2023-03-01T03:24:45;14.40;;;12.40;;
13218;SDS011;6674;49.152;11.918;2023-03-01T03:27:12;14.63;;;12.03;;
13218;SDS011;6674;49.152;11.918;2023-03-01T03:29:38;17.33;;;13.30;;
13218;SDS011;6674;49.152;11.918;2023-03-01T03:32:06;17.83;;;13.40;;
13218;SDS011;6674;49.152;11.918;2023-03-01T03:34:33;17.63;;;14.47;;
13218;SDS011;6674;49.152;11.918;2023-03-01T03:36:59;15.93;;;12.60;;
13218;SDS011;6674;49.152;11.918;2023-03-01T03:39:26;15.63;;;12.87;;
13218;SDS011;6674;49.152;11.918;2023-03-01T03:41:54;15.40;;;12.80;;
13218;SDS011;6674;49.152;11.918;2023-03-01T03:44:21;17.50;;;13.43;;
13218;SDS011;6674;49.152;11.918;2023-03-01T03:46:47;16.33;;;13.40;;
13218;SDS011;6674;49.152;11.918;2023-03-01T03:49:15;18.73;;;13.93;;
13218;SDS011;6674;49.152;11.918;2023-03-01T03:51:42;17.83;;;14.00;;
13218;SDS011;6674;49.152;11.918;2023-03-01T03:54:11;15.27;;;12.53;;
13218;SDS011;6674;49.152;11.918;2023-03-01T03:56:38;16.77;;;13.97;;
13218;SDS011;6674;49.152;11.918;2023-03-01T03:59:04;20.00;;;12.80;;
13218;SDS011;6674;49.152;11.918;2023-03-01T04:01:31;14.53;;;12.07;;
13218;SDS011;6674;49.152;11.918;2023-03-01T04:03:58;17.60;;;13.73;;
13218;SDS011;6674;49.152;11.918;2023-03-01T04:06:30;16.67;;;13.20;;
13218;SDS011;6674;49.152;11.918;2023-03-01T04:08:57;18.00;;;13.20;;
13218;SDS011;6674;49.152;11.918;2023-03-01T04:11:25;20.43;;;14.33;;
13218;SDS011;6674;49.152;11.918;2023-03-01T04:13:58;20.00;;;14.47;;
13218;SDS011;6674;49.152;11.918;2023-03-01T04:16:25;18.43;;;13.57;;
13218;SDS011;6674;49.152;11.918;2023-03-01T04:18:52;16.77;;;13.37;;
13218;SDS011;6674;49.152;11.918;2023-03-01T04:21:19;18.70;;;13.70;;
13218;SDS011;6674;49.152;11.918;2023-03-01T04:23:48;18.50;;;14.27;;
13218;SDS011;6674;49.152;11.918;2023-03-01T04:26:17;17.33;;;13.67;;
13218;SDS011;6674;49.152;11.918;2023-03-01T04:28:44;17.13;;;13.90;;
13218;SDS011;6674;49.152;11.918;2023-03-01T04:31:13;18.63;;;14.10;;
13218;SDS011;6674;49.152;11.918;2023-03-01T04:33:43;17.60;;;13.53;;
13218;SDS011;6674;49.152;11.918;2023-03-01T04:36:11;18.13;;;14.70;;
13218;SDS011;6674;49.152;11.918;2023-03-01T04:38:38;19.97;;;14.87;;
13218;SDS011;6674;49.152;11.918;2023-03-01T04:41:08;18.23;;;13.80;;
13218;SDS011;6674;49.152;11.918;2023-03-01T04:43:36;17.83;;;13.40;;
13218;SDS011;6674;49.152;11.918;2023-03-01T04:46:04;16.50;;;12.63;;
13218;SDS011;6674;49.152;11.918;2023-03-01T04:48:33;20.73;;;14.17;;
13218;SDS011;6674;49.152;11.918;2023-03-01T04:51:00;17.83;;;13.87;;
13218;SDS011;6674;49.152;11.918;2023-03-01T04:53:27;16.03;;;12.83;;
13218;SDS011;6674;49.152;11.918;2023-03-01T04:55:54;17.37;;;14.10;;
13218;SDS011;6674;49.152;11.918;2023-03-01T04:58:23;20.93;;;15.00;;
13218;SDS011;6674;49.152;11.918;2023-03-01T05:00:50;19.10;;;13.77;;
13218;SDS011;6674;49.152;11.918;2023-03-01T05:03:18;18.53;;;14.50;;
13218;SDS011;6674;49.152;11.918;2023-03-01T05:05:45;16.20;;;13.63;;
13218;SDS011;6674;49.152;11.918;2023-03-01T05:08:14;17.23;;;14.43;;
13218;SDS011;6674;49.152;11.918;2023-03-01T05:10:43;18.17;;;13.70;;
13218;SDS011;6674;49.152;11.918;2023-03-01T05:13:12;16.37;;;13.13;;
13218;SDS011;6674;49.152;11.918;2023-03-01T05:15:41;17.53;;;13.53;;
13218;SDS011;6674;49.152;11.918;2023-03-01T05:18:14;17.37;;;13.80;;
13218;SDS011;6674;49.152;11.918;2023-03-01T05:20:41;17.70;;;14.73;;
13218;SDS011;6674;49.152;11.918;2023-03-01T05:23:07;18.20;;;13.73;;
13218;SDS011;6674;49.152;11.918;2023-03-01T05:25:35;17.23;;;13.43;;
13218;SDS011;6674;49.152;11.918;2023-03-01T05:28:18;16.00;;;13.07;;
13218;SDS011;6674;49.152;11.918;2023-03-01T05:30:47;17.50;;;14.17;;
13218;SDS011;6674;49.152;11.918;2023-03-01T05:33:17;19.70;;;14.50;;
13218;SDS011;6674;49.152;11.918;2023-03-01T05:35:44;18.37;;;14.13;;
13218;SDS011;6674;49.152;11.918;2023-03-01T05:38:13;18.83;;;13.60;;
13218;SDS011;6674;49.152;11.918;2023-03-01T05:40:41;20.57;;;15.07;;
13218;SDS011;6674;49.152;11.918;2023-03-01T05:43:08;18.93;;;14.37;;
13218;SDS011;6674;49.152;11.918;2023-03-01T05:45:35;17.80;;;14.57;;
13218;SDS011;6674;49.152;11.918;2023-03-01T05:48:04;18.70;;;15.63;;
13218;SDS011;6674;49.152;11.918;2023-03-01T05:50:32;18.47;;;13.77;;
13218;SDS011;6674;49.152;11.918;2023-03-01T05:53:02;19.30;;;14.40;;
13218;SDS011;6674;49.152;11.918;2023-03-01T05:55:31;19.17;;;14.23;;
13218;SDS011;6674;49.152;11.918;2023-03-01T05:57:58;18.97;;;14.83;;
13218;SDS011;6674;49.152;11.918;2023-03-01T06:00:26;19.30;;;14.33;;
13218;SDS011;6674;49.152;11.918;2023-03-01T06:02:54;20.77;;;15.13;;
13218;SDS011;6674;49.152;11.918;2023-03-01T06:05:22;18.77;;;15.10;;
13218;SDS011;6674;49.152;11.918;2023-03-01T06:07:49;22.93;;;15.93;;
13218;SDS011;6674;49.152;11.918;2023-03-01T06:10:16;18.83;;;14.53;;
13218;SDS011;6674;49.152;11.918;2023-03-01T06:12:44;18.70;;;15.13;;
13218;SDS011;6674;49.152;11.918;2023-03-01T06:15:12;20.30;;;15.03;;
13218;SDS011;6674;49.152;11.918;2023-03-01T06:17:40;18.53;;;14.73;;
13218;SDS011;6674;49.152;11.918;2023-03-01T06:20:09;18.77;;;15.33;;
13218;SDS011;6674;49.152;11.918;2023-03-01T06:22:38;23.13;;;16.60;;
13218;SDS011;6674;49.152;11.918;2023-03-01T06:25:05;23.57;;;17.37;;
13218;SDS011;6674;49.152;11.918;2023-03-01T06:27:33;23.57;;;16.17;;
13218;SDS011;6674;49.152;11.918;2023-03-01T06:30:00;20.27;;;16.07;;
13218;SDS011;6674;49.152;11.918;2023-03-01T06:32:27;20.87;;;15.23;;
13218;SDS011;6674;49.152;11.918;2023-03-01T06:34:55;20.07;;;15.97;;
13218;SDS011;6674;49.152;11.918;2023-03-01T06:37:23;20.83;;;15.47;;
13218;SDS011;6674;49.152;11.918;2023-03-01T06:39:52;20.23;;;15.70;;
13218;SDS011;6674;49.152;11.918;2023-03-01T06:42:19;22.43;;;15.93;;
13218;SDS011;6674;49.152;11.918;2023-03-01T06:44:45;19.10;;;15.07;;
13218;SDS011;6674;49.152;11.918;2023-03-01T06:47:12;21.07;;;17.30;;
13218;SDS011;6674;49.152;11.918;2023-03-01T06:49:38;19.33;;;15.00;;
13218;SDS011;6674;49.152;11.918;2023-03-01T06:52:05;21.97;;;16.50;;
13218;SDS011;6674;49.152;11.918;2023-03-01T06:54:32;24.70;;;17.07;;
13218;SDS011;6674;49.152;11.918;2023-03-01T06:57:00;21.80;;;16.93;;
13218;SDS011;6674;49.152;11.918;2023-03-01T06:59:27;22.30;;;17.50;;
13218;SDS011;6674;49.152;11.918;2023-03-01T07:01:53;23.87;;;16.97;;
13218;SDS011;6674;49.152;11.918;2023-03-01T07:04:20;20.23;;;16.23;;
13218;SDS011;6674;49.152;11.918;2023-03-01T07:06:46;22.57;;;17.47;;
13218;SDS011;6674;49.152;11.918;2023-03-01T07:09:19;23.23;;;17.93;;
13218;SDS011;6674;49.152;11.918;2023-03-01T07:11:47;23.73;;;17.27;;
13218;SDS011;6674;49.152;11.918;2023-03-01T07:14:15;23.20;;;17.97;;
13218;SDS011;6674;49.152;11.918;2023-03-01T07:16:41;23.20;;;17.47;;
13218;SDS011;6674;49.152;11.918;2023-03-01T07:19:08;23.27;;;17.73;;
13218;SDS011;6674;49.152;11.918;2023-03-01T07:21:34;22.13;;;16.80;;
13218;SDS011;6674;49.152;11.918;2023-03-01T07:24:04;21.90;;;16.73;;
13218;SDS011;6674;49.152;11.918;2023-03-01T07:26:31;24.97;;;17.67;;
13218;SDS011;6674;49.152;11.918;2023-03-01T07:28:58;22.73;;;16.57;;
13218;SDS011;6674;49.152;11.918;2023-03-01T07:31:26;25.53;;;19.43;;
13218;SDS011;6674;49.152;11.918;2023-03-01T07:33:53;23.13;;;16.90;;
13218;SDS011;6674;49.152;11.918;2023-03-01T07:36:20;21.53;;;15.80;;
13218;SDS011;6674;49.152;11.918;2023-03-01T07:38:48;22.93;;;17.60;;
13218;SDS011;6674;49.152;11.918;2023-03-01T07:41:15;24.03;;;18.30;;
13218;SDS011;6674;49.152;11.918;2023-03-01T07:43:41;22.63;;;16.90;;
13218;SDS011;6674;49.152;11.918;2023-03-01T07:46:08;23.83;;;18.50;;
13218;SDS011;6674;49.152;11.918;2023-03-01T07:48:36;23.43;;;17.87;;
13218;SDS011;6674;49.152;11.918;2023-03-01T07:51:03;24.17;;;18.47;;
13218;SDS011;6674;49.152;11.918;2023-03-01T07:53:31;23.43;;;17.57;;
13218;SDS011;6674;49.152;11.918;2023-03-01T07:56:02;24.30;;;17.97;;
13218;SDS011;6674;49.152;11.918;2023-03-01T07:58:30;22.87;;;18.40;;
13218;SDS011;6674;49.152;11.918;2023-03-01T08:01:00;24.17;;;19.73;;
13218;SDS011;6674;49.152;11.918;2023-03-01T08:03:27;24.50;;;18.53;;
13218;SDS011;6674;49.152;11.918;2023-03-01T08:05:55;24.20;;;18.27;;
13218;SDS011;6674;49.152;11.918;2023-03-01T08:08:22;22.47;;;17.20;;
13218;SDS011;6674;49.152;11.918;2023-03-01T08:10:48;24.47;;;18.43;;
13218;SDS011;6674;49.152;11.918;2023-03-01T08:13:15;24.40;;;18.93;;
13218;SDS011;6674;49.152;11.918;2023-03-01T08:15:47;24.13;;;19.10;;
13218;SDS011;6674;49.152;11.918;2023-03-01T08:18:14;26.23;;;19.43;;
13218;SDS011;6674;49.152;11.918;2023-03-01T08:20:41;26.57;;;19.30;;
13218;SDS011;6674;49.152;11.918;2023-03-01T08:23:08;24.57;;;19.20;;
13218;SDS011;6674;49.152;11.918;2023-03-01T08:25:35;22.30;;;17.70;;
13218;SDS011;6674;49.152;11.918;2023-03-01T08:28:02;26.27;;;19.90;;
13218;SDS011;6674;49.152;11.918;2023-03-01T08:30:28;21.80;;;17.60;;
13218;SDS011;6674;49.152;11.918;2023-03-01T08:32:55;21.33;;;17.00;;
13218;SDS011;6674;49.152;11.918;2023-03-01T08:35:22;21.47;;;17.37;;
13218;SDS011;6674;49.152;11.918;2023-03-01T08:37:48;23.73;;;17.90;;
13218;SDS011;6674;49.152;11.918;2023-03-01T08:40:16;25.90;;;18.93;;
13218;SDS011;6674;49.152;11.918;2023-03-01T08:42:43;24.53;;;19.10;;
13218;SDS011;6674;49.152;11.918;2023-03-01T08:45:10;24.13;;;18.77;;
13218;SDS011;6674;49.152;11.918;2023-03-01T08:47:39;27.03;;;20.13;;
13218;SDS011;6674;49.152;11.918;2023-03-01T08:50:06;22.87;;;18.27;;
13218;SDS011;6674;49.152;11.918;2023-03-01T08:52:35;23.70;;;18.97;;
13218;SDS011;6674;49.152;11.918;2023-03-01T08:55:05;22.77;;;18.37;;
13218;SDS011;6674;49.152;11.918;2023-03-01T08:57:34;23.13;;;19.20;;
13218;SDS011;6674;49.152;11.918;2023-03-01T09:00:00;24.77;;;18.70;;
13218;SDS011;6674;49.152;11.918;2023-03-01T09:02:28;26.00;;;19.07;;
13218;SDS011;6674;49.152;11.918;2023-03-01T09:04:54;23.80;;;19.10;;
13218;SDS011;6674;49.152;11.918;2023-03-01T09:07:21;21.83;;;18.57;;
13218;SDS011;6674;49.152;11.918;2023-03-01T09:09:53;22.60;;;18.83;;
13218;SDS011;6674;49.152;11.918;2023-03-01T09:12:20;22.67;;;18.33;;
13218;SDS011;6674;49.152;11.918;2023-03-01T09:14:48;22.77;;;18.83;;
13218;SDS011;6674;49.152;11.918;2023-03-01T09:17:16;20.90;;;17.53;;
13218;SDS011;6674;49.152;11.918;2023-03-01T09:19:43;22.70;;;19.07;;
13218;SDS011;6674;49.152;11.918;2023-03-01T09:22:09;21.70;;;18.20;;
13218;SDS011;6674;49.152;11.918;2023-03-01T09:24:36;21.30;;;17.73;;
13218;SDS011;6674;49.152;11.918;2023-03-01T09:27:04;22.17;;;18.50;;
13218;SDS011;6674;49.152;11.918;2023-03-01T09:29:33;21.67;;;17.57;;
13218;SDS011;6674;49.152;11.918;2023-03-01T09:32:02;23.80;;;18.07;;
13218;SDS011;6674;49.152;11.918;2023-03-01T09:34:29;21.63;;;18.03;;
13218;SDS011;6674;49.152;11.918;2023-03-01T09:36:57;18.37;;;15.87;;
13218;SDS011;6674;49.152;11.918;2023-03-01T09:39:25;21.27;;;17.83;;
13218;SDS011;6674;49.152;11.918;2023-03-01T09:41:54;20.93;;;18.53;;
13218;SDS011;6674;49.152;11.918;2023-03-01T09:44:29;22.77;;;17.80;;
13218;SDS011;6674;49.152;11.918;2023-03-01T09:47:03;21.37;;;17.67;;
13218;SDS011;6674;49.152;11.918;2023-03-01T09:49:40;20.17;;;16.67;;
13218;SDS011;6674;49.152;11.918;2023-03-01T09:52:17;19.67;;;16.73;;
13218;SDS011;6674;49.152;11.918;2023-03-01T09:54:49;22.40;;;17.40;;
13218;SDS011;6674;49.152;11.918;2023-03-01T09:57:24;18.60;;;15.87;;
13218;SDS011;6674;49.152;11.918;2023-03-01T10:00:00;20.20;;;15.80;;
13218;SDS011;6674;49.152;11.918;2023-03-01T10:02:41;19.73;;;15.97;;
13218;SDS011;6674;49.152;11.918;2023-03-01T10:05:21;16.70;;;14.50;;
13218;SDS011;6674;49.152;11.918;2023-03-01T10:07:59;17.20;;;14.30;;
13218;SDS011;6674;49.152;11.918;2023-03-01T10:10:33;16.63;;;14.83;;
13218;SDS011;6674;49.152;11.918;2023-03-01T10:13:02;17.87;;;15.53;;
13218;SDS011;6674;49.152;11.918;2023-03-01T10:15:34;19.17;;;16.90;;
13218;SDS011;6674;49.152;11.918;2023-03-01T10:18:09;18.83;;;16.17;;
13218;SDS011;6674;49.152;11.918;2023-03-01T10:20:42;19.10;;;16.43;;
13218;SDS011;6674;49.152;11.918;2023-03-01T10:23:12;19.53;;;15.77;;
13218;SDS011;6674;49.152;11.918;2023-03-01T10:25:47;16.20;;;14.33;;
13218;SDS011;6674;49.152;11.918;2023-03-01T10:28:25;15.83;;;14.00;;
13218;SDS011;6674;49.152;11.918;2023-03-01T10:30:54;18.30;;;14.53;;
13218;SDS011;6674;49.152;11.918;2023-03-01T10:33:23;18.73;;;15.43;;
13218;SDS011;6674;49.152;11.918;2023-03-01T10:35:52;16.57;;;14.33;;
13218;SDS011;6674;49.152;11.918;2023-03-01T10:38:19;16.80;;;14.43;;
13218;SDS011;6674;49.152;11.918;2023-03-01T10:40:51;16.80;;;14.97;;
13218;SDS011;6674;49.152;11.918;2023-03-01T10:43:20;17.20;;;14.20;;
13218;SDS011;6674;49.152;11.918;2023-03-01T10:45:47;15.50;;;13.10;;
13218;SDS011;6674;49.152;11.918;2023-03-01T10:48:15;18.80;;;15.10;;
13218;SDS011;6674;49.152;11.918;2023-03-01T10:50:44;17.10;;;14.13;;
13218;SDS011;6674;49.152;11.918;2023-03-01T10:53:20;16.47;;;14.30;;
13218;SDS011;6674;49.152;11.918;2023-03-01T10:55:58;15.13;;;13.53;;
13218;SDS011;6674;49.152;11.918;2023-03-01T10:58:27;16.60;;;14.43;;
13218;SDS011;6674;49.152;11.918;2023-03-01T11:00:55;14.77;;;13.20;;
13218;SDS011;6674;49.152;11.918;2023-03-01T11:03:23;16.37;;;14.07;;
13218;SDS011;6674;49.152;11.918;2023-03-01T11:05:54;15.60;;;13.93;;
13218;SDS011;6674;49.152;11.918;2023-03-01T11:08:33;15.80;;;13.60;;
13218;SDS011;6674;49.152;11.918;2023-03-01T11:11:06;15.67;;;13.87;;
13218;SDS011;6674;49.152;11.918;2023-03-01T11:13:40;15.53;;;13.50;;
13218;SDS011;6674;49.152;11.918;2023-03-01T11:16:22;14.87;;;13.40;;
13218;SDS011;6674;49.152;11.918;2023-03-01T11:18:55;15.77;;;14.17;;
13218;SDS011;6674;49.152;11.918;2023-03-01T11:21:25;15.17;;;13.63;;
13218;SDS011;6674;49.152;11.918;2023-03-01T11:23:54;14.03;;;12.50;;
13218;SDS011;6674;49.152;11.918;2023-03-01T11:26:21;14.00;;;12.50;;
13218;SDS011;6674;49.152;11.918;2023-03-01T11:28:50;14.27;;;12.77;;
13218;SDS011;6674;49.152;11.918;2023-03-01T11:31:20;14.80;;;13.30;;
13218;SDS011;6674;49.152;11.918;2023-03-01T11:33:50;15.87;;;12.97;;
13218;SDS011;6674;49.152;11.918;2023-03-01T11:36:24;15.43;;;12.57;;
13218;SDS011;6674;49.152;11.918;2023-03-01T11:38:56;14.30;;;12.80;;
13218;SDS011;6674;49.152;11.918;2023-03-01T11:41:23;14.20;;;11.70;;
13218;SDS011;6674;49.152;11.918;2023-03-01T11:43:54;13.57;;;12.17;;
13218;SDS011;6674;49.152;11.918;2023-03-01T11:49:32;14.60;;;12.40;;
13218;SDS011;6674;49.152;11.918;2023-03-01T11:52:22;14.27;;;12.83;;
13218;SDS011;6674;49.152;11.918;2023-03-01T11:55:03;13.30;;;12.00;;
13218;SDS011;6674;49.152;11.918;2023-03-01T11:57:48;13.60;;;12.17;;
13218;SDS011;6674;49.152;11.918;2023-03-01T12:00:37;12.33;;;11.10;;
13218;SDS011;6674;49.152;11.918;2023-03-01T12:03:19;13.27;;;11.90;;
13218;SDS011;6674;49.152;11.918;2023-03-01T12:06:00;14.47;;;12.97;;
13218;SDS011;6674;49.152;11.918;2023-03-01T12:08:51;14.57;;;13.07;;
13218;SDS011;6674;49.152;11.918;2023-03-01T12:11:30;14.80;;;13.20;;
13218;SDS011;6674;49.152;11.918;2023-03-01T12:14:10;13.90;;;12.50;;
13218;SDS011;6674;49.152;11.918;2023-03-01T12:19:55;13.60;;;12.17;;
13218;SDS011;6674;49.152;11.918;2023-03-01T12:22:37;13.50;;;12.20;;
13218;SDS011;6674;49.152;11.918;2023-03-01T12:25:23;14.80;;;13.30;;
13218;SDS011;6674;49.152;11.918;2023-03-01T12:28:01;15.20;;;13.60;;
13218;SDS011;6674;49.152;11.918;2023-03-01T12:30:39;14.87;;;13.37;;
13218;SDS011;6674;49.152;11.918;2023-03-01T12:33:18;15.23;;;13.27;;
13218;SDS011;6674;49.152;11.918;2023-03-01T12:35:54;14.77;;;13.27;;
13218;SDS011;6674;49.152;11.918;2023-03-01T12:38:33;15.53;;;13.93;;
13218;SDS011;6674;49.152;11.918;2023-03-01T12:41:17;14.13;;;12.77;;
13218;SDS011;6674;49.152;11.918;2023-03-01T12:43:58;14.43;;;12.93;;
13218;SDS011;6674;49.152;11.918;2023-03-01T12:46:38;16.07;;;14.37;;
13218;SDS011;6674;49.152;11.918;2023-03-01T12:49:12;15.33;;;13.73;;
13218;SDS011;6674;49.152;11.918;2023-03-01T12:51:43;15.67;;;14.07;;
13218;SDS011;6674;49.152;11.918;2023-03-01T12:54:20;15.70;;;13.00;;
13218;SDS011;6674;49.152;11.918;2023-03-01T12:56:54;16.50;;;14.77;;
13218;SDS011;6674;49.152;11.918;2023-03-01T12:59:23;15.17;;;13.50;;
13218;SDS011;6674;49.152;11.918;2023-03-01T13:01:56;15.23;;;13.63;;
13218;SDS011;6674;49.152;11.918;2023-03-01T13:04:33;15.53;;;13.90;;
13218;SDS011;6674;49.152;11.918;2023-03-01T13:07:10;16.30;;;14.60;;
13218;SDS011;6674;49.152;11.918;2023-03-01T13:09:44;15.00;;;13.50;;
13218;SDS011;6674;49.152;11.918;2023-03-01T13:15:32;16.20;;;14.60;;
13218;SDS011;6674;49.152;11.918;2023-03-01T13:18:01;15.37;;;13.83;;
13218;SDS011;6674;49.152;11.918;2023-03-01T13:20:30;14.57;;;13.07;;
13218;SDS011;6674;49.152;11.918;2023-03-01T13:23:04;14.47;;;13.03;;
13218;SDS011;6674;49.152;11.918;2023-03-01T13:25:34;16.00;;;14.40;;
13218;SDS011;6674;49.152;11.918;2023-03-01T13:28:36;16.43;;;14.73;;
13218;SDS011;6674;49.152;11.918;2023-03-01T13:31:06;17.47;;;15.67;;
13218;SDS011;6674;49.152;11.918;2023-03-01T13:33:39;16.63;;;14.70;;
13218;SDS011;6674;49.152;11.918;2023-03-01T13:36:08;17.03;;;15.10;;
13218;SDS011;6674;49.152;11.918;2023-03-01T13:38:46;16.87;;;15.07;;
13218;SDS011;6674;49.152;11.918;2023-03-01T13:41:13;17.17;;;15.47;;
13218;SDS011;6674;49.152;11.918;2023-03-01T13:43:42;18.23;;;16.33;;
13218;SDS011;6674;49.152;11.918;2023-03-01T13:46:11;17.90;;;16.17;;
13218;SDS011;6674;49.152;11.918;2023-03-01T13:48:43;18.97;;;16.83;;
13218;SDS011;6674;49.152;11.918;2023-03-01T13:51:13;18.17;;;16.33;;
13218;SDS011;6674;49.152;11.918;2023-03-01T13:53:41;20.50;;;18.30;;
13218;SDS011;6674;49.152;11.918;2023-03-01T13:56:11;18.83;;;16.83;;
13218;SDS011;6674;49.152;11.918;2023-03-01T13:58:50;17.83;;;16.03;;
13218;SDS011;6674;49.152;11.918;2023-03-01T14:01:23;17.97;;;16.17;;
13218;SDS011;6674;49.152;11.918;2023-03-01T14:03:52;19.23;;;16.47;;
13218;SDS011;6674;49.152;11.918;2023-03-01T14:06:20;19.53;;;17.17;;
13218;SDS011;6674;49.152;11.918;2023-03-01T14:08:52;18.00;;;16.07;;
13218;SDS011;6674;49.152;11.918;2023-03-01T14:14:36;19.57;;;17.57;;
13218;SDS011;6674;49.152;11.918;2023-03-01T14:17:11;18.17;;;16.13;;
13218;SDS011;6674;49.152;11.918;2023-03-01T14:19:57;18.47;;;16.57;;
13218;SDS011;6674;49.152;11.918;2023-03-01T14:22:25;18.53;;;16.30;;
13218;SDS011;6674;49.152;11.918;2023-03-01T14:24:55;19.63;;;17.00;;
13218;SDS011;6674;49.152;11.918;2023-03-01T14:27:25;18.93;;;16.93;;
13218;SDS011;6674;49.152;11.918;2023-03-01T14:29:55;19.20;;;17.07;;
13218;SDS011;6674;49.152;11.918;2023-03-01T14:32:24;19.23;;;17.23;;
13218;SDS011;6674;49.152;11.918;2023-03-01T14:34:52;18.90;;;17.00;;
13218;SDS011;6674;49.152;11.918;2023-03-01T14:37:21;18.97;;;17.00;;
13218;SDS011;6674;49.152;11.918;2023-03-01T14:39:50;20.57;;;17.67;;
13218;SDS011;6674;49.152;11.918;2023-03-01T14:42:18;18.73;;;16.83;;
13218;SDS011;6674;49.152;11.918;2023-03-01T14:44:47;19.13;;;17.13;;
13218;SDS011;6674;49.152;11.918;2023-03-01T14:47:19;18.80;;;16.87;;
13218;SDS011;6674;49.152;11.918;2023-03-01T14:49:54;18.33;;;16.27;;